createdAt,value
2018-11-25T00:02:19.218Z,30.90
2018-11-25T00:04:47.572Z,35.37
2018-11-25T00:07:15.976Z,29.40
2018-11-25T00:09:44.371Z,31.33
2018-11-25T00:12:12.806Z,31.30
2018-11-25T00:14:41.163Z,29.63
2018-11-25T00:17:09.592Z,29.37
2018-11-25T00:19:38.125Z,30.47
2018-11-25T00:22:06.521Z,33.00
2018-11-25T00:24:34.900Z,32.57
2018-11-25T00:27:03.222Z,36.03
2018-11-25T00:29:31.617Z,32.83
2018-11-25T00:32:00.024Z,31.07
2018-11-25T00:34:28.437Z,34.70
2018-11-25T00:36:56.871Z,36.63
2018-11-25T00:39:25.303Z,40.10
2018-11-25T00:41:53.645Z,40.33
2018-11-25T00:44:22.016Z,41.00
2018-11-25T00:46:50.379Z,34.03
2018-11-25T00:49:18.710Z,35.53
2018-11-25T00:51:47.237Z,33.60
2018-11-25T00:54:15.566Z,32.63
2018-11-25T00:56:43.915Z,41.07
2018-11-25T00:59:12.303Z,33.77
2018-11-25T01:01:40.608Z,31.50
2018-11-25T01:04:09.045Z,38.10
2018-11-25T01:06:38.256Z,35.40
2018-11-25T01:09:09.006Z,35.20
2018-11-25T01:11:37.464Z,35.07
2018-11-25T01:14:06.028Z,35.77
2018-11-25T01:16:34.422Z,33.00
2018-11-25T01:19:02.802Z,35.30
2018-11-25T01:21:31.162Z,34.83
2018-11-25T01:23:59.500Z,33.63
2018-11-25T01:26:27.837Z,38.33
2018-11-25T01:28:56.174Z,35.40
2018-11-25T01:31:24.601Z,38.60
2018-11-25T01:33:52.916Z,33.33
2018-11-25T01:36:21.346Z,33.97
2018-11-25T01:38:49.802Z,35.03
2018-11-25T01:41:18.136Z,36.00
2018-11-25T01:43:46.567Z,31.37
2018-11-25T01:46:14.995Z,29.37
2018-11-25T01:48:43.415Z,28.97
2018-11-25T01:51:11.775Z,27.67
2018-11-25T01:53:40.182Z,29.57
2018-11-25T01:56:08.533Z,29.83
2018-11-25T01:58:36.938Z,27.97
2018-11-25T02:01:05.799Z,27.77
2018-11-25T02:03:34.115Z,23.13
2018-11-25T02:06:02.427Z,24.83
2018-11-25T02:08:30.857Z,25.00
2018-11-25T02:10:59.163Z,24.73
2018-11-25T02:13:27.581Z,29.80
2018-11-25T02:15:55.960Z,32.13
2018-11-25T02:18:24.356Z,28.80
2018-11-25T02:20:52.694Z,28.60
2018-11-25T02:23:21.083Z,28.57
2018-11-25T02:25:49.453Z,28.10
2018-11-25T02:28:17.847Z,26.87
2018-11-25T02:30:46.447Z,27.23
2018-11-25T02:33:14.843Z,27.83
2018-11-25T02:35:43.185Z,30.73
2018-11-25T02:38:11.584Z,31.80
2018-11-25T02:40:40.038Z,29.27
2018-11-25T02:43:08.438Z,27.63
2018-11-25T02:45:36.775Z,27.00
2018-11-25T02:48:05.149Z,26.70
2018-11-25T02:50:34.124Z,29.57
2018-11-25T02:53:06.872Z,25.53
2018-11-25T02:55:35.264Z,27.20
2018-11-25T02:58:03.607Z,25.97
2018-11-25T03:00:31.960Z,24.00
2018-11-25T03:03:00.276Z,25.10
2018-11-25T03:05:28.659Z,24.43
2018-11-25T03:07:56.979Z,21.80
2018-11-25T03:10:25.439Z,23.40
2018-11-25T03:12:54.184Z,23.07
2018-11-25T03:15:22.564Z,22.90
2018-11-25T03:17:50.907Z,23.43
2018-11-25T03:20:19.323Z,23.23
2018-11-25T03:22:47.698Z,22.17
2018-11-25T03:25:19.948Z,21.43
2018-11-25T03:27:48.342Z,22.97
2018-11-25T03:30:17.989Z,21.20
2018-11-25T03:32:47.327Z,21.40
2018-11-25T03:35:15.741Z,26.33
2018-11-25T03:37:44.190Z,25.60
2018-11-25T03:40:13.715Z,25.80
2018-11-25T03:42:42.073Z,23.90
2018-11-25T03:45:20.157Z,25.23
2018-11-25T03:47:48.522Z,26.43
2018-11-25T03:50:17.176Z,25.47
2018-11-25T03:52:45.594Z,26.63
2018-11-25T03:55:15.823Z,25.13
2018-11-25T03:57:44.116Z,26.43
2018-11-25T04:00:18.559Z,23.83
2018-11-25T04:02:47.068Z,22.97
2018-11-25T04:05:16.424Z,24.17
2018-11-25T04:07:44.808Z,23.83
2018-11-25T04:10:15.031Z,24.83
2018-11-25T04:12:43.314Z,24.63
2018-11-25T04:15:12.594Z,24.97
2018-11-25T04:17:40.893Z,24.33
2018-11-25T04:20:24.736Z,23.07
2018-11-25T04:22:53.043Z,23.60
2018-11-25T04:25:21.462Z,21.70
2018-11-25T04:27:49.800Z,23.23
2018-11-25T04:30:18.983Z,22.80
2018-11-25T04:32:49.424Z,23.00
2018-11-25T04:35:17.886Z,23.07
2018-11-25T04:37:46.200Z,23.77
2018-11-25T04:40:15.401Z,25.70
2018-11-25T04:42:43.691Z,24.57
2018-11-25T04:45:14.779Z,25.23
2018-11-25T04:47:43.502Z,24.40
2018-11-25T04:50:15.047Z,24.83
2018-11-25T04:52:43.405Z,24.10
2018-11-25T04:55:11.812Z,21.63
2018-11-25T04:57:40.183Z,22.97
2018-11-25T05:00:10.982Z,23.77
2018-11-25T05:02:39.799Z,22.27
2018-11-25T05:05:11.767Z,22.17
2018-11-25T05:07:40.281Z,21.80
2018-11-25T05:10:12.693Z,21.90
2018-11-25T05:12:41.130Z,21.03
2018-11-25T05:15:11.219Z,22.47
2018-11-25T05:17:39.579Z,21.17
2018-11-25T05:20:09.679Z,26.20
2018-11-25T05:22:38.104Z,28.37
2018-11-25T05:25:08.880Z,24.70
2018-11-25T05:27:37.284Z,21.47
2018-11-25T05:30:07.792Z,22.17
2018-11-25T05:32:36.187Z,22.57
2018-11-25T05:35:05.730Z,23.17
2018-11-25T05:37:34.149Z,22.43
2018-11-25T05:40:02.486Z,21.67
2018-11-25T05:42:30.835Z,20.30
2018-11-25T05:44:59.153Z,20.27
2018-11-25T05:47:27.503Z,20.70
2018-11-25T05:49:55.800Z,20.67
2018-11-25T05:52:24.225Z,20.83
2018-11-25T05:54:52.627Z,21.87
2018-11-25T05:57:21.001Z,21.73
2018-11-25T05:59:49.369Z,19.97
2018-11-25T06:02:17.954Z,19.57
2018-11-25T06:04:46.320Z,22.23
2018-11-25T06:07:14.672Z,21.10
2018-11-25T06:09:43.089Z,21.10
2018-11-25T06:12:11.476Z,20.30
2018-11-25T06:14:39.931Z,20.10
2018-11-25T06:17:08.320Z,20.83
2018-11-25T06:19:36.685Z,19.20
2018-11-25T06:22:05.380Z,19.77
2018-11-25T06:24:33.736Z,19.70
2018-11-25T06:27:02.065Z,19.53
2018-11-25T06:29:30.373Z,20.17
2018-11-25T06:31:58.808Z,20.33
2018-11-25T06:34:27.095Z,21.17
2018-11-25T06:36:55.688Z,20.43
2018-11-25T06:39:24.147Z,18.23
2018-11-25T06:41:53.373Z,20.10
2018-11-25T06:44:21.810Z,18.90
2018-11-25T06:46:50.284Z,18.50
2018-11-25T06:49:18.618Z,18.70
2018-11-25T06:51:47.034Z,19.00
2018-11-25T06:54:15.341Z,18.77
2018-11-25T06:56:43.660Z,19.60
2018-11-25T06:59:12.059Z,21.63
2018-11-25T07:01:40.459Z,20.87
2018-11-25T07:04:08.792Z,21.47
2018-11-25T07:06:37.188Z,16.63
2018-11-25T07:09:09.902Z,18.33
2018-11-25T07:11:37.314Z,17.17
2018-11-25T07:14:06.134Z,16.23
2018-11-25T07:16:34.568Z,16.17
2018-11-25T07:19:02.895Z,16.07
2018-11-25T07:21:31.392Z,13.37
2018-11-25T07:23:59.736Z,13.97
2018-11-25T07:26:28.091Z,13.67
2018-11-25T07:28:56.509Z,15.00
2018-11-25T07:31:24.908Z,14.07
2018-11-25T07:33:53.403Z,12.97
2018-11-25T07:36:21.689Z,11.70
2018-11-25T07:38:50.115Z,12.47
2018-11-25T07:41:18.550Z,14.17
2018-11-25T07:43:46.883Z,13.07
2018-11-25T07:46:15.321Z,14.77
2018-11-25T07:48:43.696Z,14.50
2018-11-25T07:51:12.037Z,14.07
2018-11-25T07:53:40.355Z,16.67
2018-11-25T07:56:08.695Z,20.83
2018-11-25T07:58:37.141Z,24.07
2018-11-25T08:01:05.605Z,26.50
2018-11-25T08:03:34.199Z,26.90
2018-11-25T08:06:02.998Z,29.87
2018-11-25T08:08:31.429Z,45.67
2018-11-25T08:11:00.188Z,32.77
2018-11-25T08:13:28.608Z,24.60
2018-11-25T08:15:57.583Z,15.93
2018-11-25T08:18:26.041Z,20.13
2018-11-25T08:20:54.403Z,20.03
2018-11-25T08:23:22.858Z,20.47
2018-11-25T08:25:51.153Z,20.33
2018-11-25T08:28:19.821Z,16.00
2018-11-25T08:30:48.294Z,15.50
2018-11-25T08:33:16.632Z,15.97
2018-11-25T08:35:45.080Z,17.97
2018-11-25T08:38:13.519Z,24.87
2018-11-25T08:40:41.976Z,34.07
2018-11-25T08:43:10.394Z,32.43
2018-11-25T08:45:38.860Z,43.50
2018-11-25T08:48:07.294Z,43.87
2018-11-25T08:50:35.673Z,38.33
2018-11-25T08:53:04.112Z,35.13
2018-11-25T08:55:32.569Z,35.60
2018-11-25T08:58:01.081Z,38.27
2018-11-25T09:00:29.485Z,38.43
2018-11-25T09:03:05.592Z,39.47
2018-11-25T09:05:34.901Z,33.93
2018-11-25T09:08:02.909Z,37.70
2018-11-25T09:10:32.776Z,33.27
2018-11-25T09:13:01.231Z,39.23
2018-11-25T09:15:30.633Z,41.23
2018-11-25T09:17:59.365Z,21.53
2018-11-25T09:20:27.677Z,19.30
2018-11-25T09:22:56.054Z,22.27
2018-11-25T09:25:26.656Z,26.63
2018-11-25T09:27:55.769Z,24.43
2018-11-25T09:30:25.186Z,23.80
2018-11-25T09:32:53.523Z,20.63
2018-11-25T09:35:22.073Z,18.43
2018-11-25T09:37:50.476Z,19.30
2018-11-25T09:40:21.837Z,17.67
2018-11-25T09:42:50.212Z,18.20
2018-11-25T09:45:19.472Z,18.43
2018-11-25T09:47:48.203Z,16.73
2018-11-25T09:50:18.767Z,17.43
2018-11-25T09:52:47.115Z,16.90
2018-11-25T09:55:20.179Z,17.53
2018-11-25T09:57:50.871Z,19.13
2018-11-25T10:00:23.208Z,17.87
2018-11-25T10:02:51.517Z,18.17
2018-11-25T10:05:19.855Z,17.53
2018-11-25T10:07:48.181Z,17.33
2018-11-25T10:10:19.703Z,18.07
2018-11-25T10:12:48.143Z,17.03
2018-11-25T10:15:19.557Z,22.70
2018-11-25T10:17:47.972Z,20.43
2018-11-25T10:20:22.521Z,19.17
2018-11-25T10:22:50.892Z,18.23
2018-11-25T10:25:20.430Z,17.70
2018-11-25T10:27:49.017Z,18.10
2018-11-25T10:30:21.623Z,18.13
2018-11-25T10:32:52.476Z,17.37
2018-11-25T10:35:21.043Z,17.50
2018-11-25T10:37:49.357Z,17.57
2018-11-25T10:40:19.676Z,17.53
2018-11-25T10:42:48.086Z,16.87
2018-11-25T10:45:17.655Z,15.87
2018-11-25T10:47:46.023Z,16.90
2018-11-25T10:50:16.170Z,16.80
2018-11-25T10:52:44.588Z,15.97
2018-11-25T10:55:13.876Z,15.97
2018-11-25T10:57:42.912Z,16.70
2018-11-25T11:00:19.133Z,16.87
2018-11-25T11:02:47.620Z,17.97
2018-11-25T11:05:21.264Z,17.07
2018-11-25T11:07:49.627Z,16.13
2018-11-25T11:10:18.028Z,16.30
2018-11-25T11:12:46.348Z,16.47
2018-11-25T11:15:14.878Z,16.60
2018-11-25T11:17:43.339Z,15.57
2018-11-25T11:20:11.756Z,15.57
2018-11-25T11:22:40.061Z,14.77
2018-11-25T11:25:09.424Z,13.67
2018-11-25T11:27:37.799Z,13.27
2018-11-25T11:30:10.982Z,12.47
2018-11-25T11:32:43.807Z,11.57
2018-11-25T11:35:12.224Z,11.83
2018-11-25T11:37:40.613Z,13.43
2018-11-25T11:40:12.352Z,13.87
2018-11-25T11:42:40.752Z,11.83
2018-11-25T11:45:10.795Z,11.40
2018-11-25T11:47:39.228Z,9.67
2018-11-25T11:50:16.083Z,9.80
2018-11-25T11:52:44.600Z,10.30
2018-11-25T11:55:14.121Z,9.40
2018-11-25T11:57:43.304Z,9.60
2018-11-25T12:00:15.528Z,10.20
2018-11-25T12:02:43.936Z,10.67
2018-11-25T12:05:12.449Z,11.47
2018-11-25T12:07:40.838Z,9.40
2018-11-25T12:10:12.391Z,9.73
2018-11-25T12:12:40.817Z,13.10
2018-11-25T12:15:12.301Z,14.20
2018-11-25T12:17:40.647Z,9.30
2018-11-25T12:20:09.882Z,9.30
2018-11-25T12:22:38.700Z,7.40
2018-11-25T12:25:10.103Z,7.80
2018-11-25T12:27:38.697Z,8.17
2018-11-25T12:30:09.644Z,61.30
2018-11-25T12:32:38.249Z,13.90
2018-11-25T12:35:07.261Z,26.27
2018-11-25T12:37:36.168Z,16.93
2018-11-25T12:40:04.346Z,16.53
2018-11-25T12:42:32.754Z,9.70
2018-11-25T12:45:01.151Z,8.50
2018-11-25T12:47:29.596Z,17.07
2018-11-25T12:49:57.972Z,11.67
2018-11-25T12:52:26.324Z,9.43
2018-11-25T12:54:54.636Z,7.67
2018-11-25T12:57:23.009Z,8.47
2018-11-25T12:59:51.378Z,9.60
2018-11-25T13:02:19.739Z,11.27
2018-11-25T13:04:48.074Z,13.67
2018-11-25T13:07:16.507Z,8.63
2018-11-25T13:09:44.788Z,8.23
2018-11-25T13:12:13.288Z,8.23
2018-11-25T13:14:41.666Z,10.53
2018-11-25T13:17:10.020Z,10.33
2018-11-25T13:19:38.417Z,9.57
2018-11-25T13:22:07.831Z,9.20
2018-11-25T13:24:36.265Z,10.37
2018-11-25T13:27:05.227Z,11.27
2018-11-25T13:29:33.624Z,14.60
2018-11-25T13:32:02.031Z,9.90
2018-11-25T13:34:30.394Z,8.20
2018-11-25T13:36:58.797Z,9.43
2018-11-25T13:39:27.089Z,8.73
2018-11-25T13:41:55.535Z,9.63
2018-11-25T13:44:23.906Z,8.53
2018-11-25T13:46:52.271Z,8.53
2018-11-25T13:49:20.639Z,11.70
2018-11-25T13:51:49.173Z,14.10
2018-11-25T13:54:17.499Z,13.50
2018-11-25T13:56:45.908Z,14.77
2018-11-25T13:59:14.241Z,14.10
2018-11-25T14:01:42.563Z,13.73
2018-11-25T14:04:10.892Z,12.40
2018-11-25T14:06:39.365Z,11.10
2018-11-25T14:09:12.083Z,8.87
2018-11-25T14:11:40.433Z,8.20
2018-11-25T14:14:08.742Z,9.00
2018-11-25T14:16:37.107Z,8.53
2018-11-25T14:19:05.787Z,10.70
2018-11-25T14:21:34.196Z,13.00
2018-11-25T14:24:02.536Z,12.90
2018-11-25T14:26:39.221Z,13.23
2018-11-25T14:29:07.591Z,12.60
2018-11-25T14:31:35.987Z,12.80
2018-11-25T14:34:04.321Z,12.27
2018-11-25T14:36:33.017Z,13.23
2018-11-25T14:39:01.485Z,13.80
2018-11-25T14:41:29.855Z,16.90
2018-11-25T14:43:58.156Z,17.90
2018-11-25T14:46:26.633Z,22.33
2018-11-25T14:48:54.943Z,15.87
2018-11-25T14:51:23.358Z,13.03
2018-11-25T14:53:52.646Z,12.27
2018-11-25T14:56:20.903Z,11.70
2018-11-25T14:58:49.472Z,10.90
2018-11-25T15:01:17.939Z,10.37
2018-11-25T15:03:46.430Z,10.73
2018-11-25T15:06:14.877Z,9.80
2018-11-25T15:08:43.394Z,9.57
2018-11-25T15:11:11.785Z,8.93
2018-11-25T15:13:40.195Z,10.10
2018-11-25T15:16:10.795Z,15.03
2018-11-25T15:18:39.102Z,36.30
2018-11-25T15:21:08.641Z,20.63
2018-11-25T15:23:37.132Z,17.43
2018-11-25T15:26:06.339Z,21.30
2018-11-25T15:28:34.916Z,18.30
2018-11-25T15:31:03.227Z,17.70
2018-11-25T15:33:31.587Z,17.17
2018-11-25T15:35:59.910Z,16.77
2018-11-25T15:38:28.232Z,15.20
2018-11-25T15:40:57.322Z,13.13
2018-11-25T15:43:25.091Z,13.73
2018-11-25T15:45:53.468Z,12.37
2018-11-25T15:48:27.585Z,13.93
2018-11-25T15:50:55.917Z,15.27
2018-11-25T15:53:24.296Z,15.60
2018-11-25T15:55:54.182Z,15.27
2018-11-25T15:58:22.537Z,14.07
2018-11-25T16:00:52.193Z,13.53
2018-11-25T16:03:20.672Z,12.83
2018-11-25T16:05:55.365Z,14.30
2018-11-25T16:08:23.918Z,13.63
2018-11-25T16:10:52.393Z,15.43
2018-11-25T16:13:20.789Z,18.37
2018-11-25T16:15:49.705Z,16.97
2018-11-25T16:18:18.701Z,16.83
2018-11-25T16:20:48.492Z,19.43
2018-11-25T16:23:16.923Z,25.07
2018-11-25T16:25:48.952Z,16.90
2018-11-25T16:28:19.001Z,16.10
2018-11-25T16:30:47.531Z,14.90
2018-11-25T16:33:15.903Z,15.53
2018-11-25T16:35:44.331Z,16.53
2018-11-25T16:38:12.681Z,14.97
2018-11-25T16:40:40.977Z,14.83
2018-11-25T16:43:09.684Z,15.27
2018-11-25T16:45:38.051Z,16.03
2018-11-25T16:48:07.442Z,15.63
2018-11-25T16:50:35.748Z,17.00
2018-11-25T16:53:04.107Z,17.87
2018-11-25T16:55:32.617Z,17.60
2018-11-25T16:58:00.952Z,16.80
2018-11-25T17:00:29.400Z,20.67
2018-11-25T17:02:57.719Z,20.67
2018-11-25T17:05:31.672Z,18.13
2018-11-25T17:09:06.435Z,17.93
2018-11-25T17:11:34.735Z,16.53
2018-11-25T17:14:03.095Z,17.13
2018-11-25T17:16:31.492Z,18.07
2018-11-25T17:18:59.858Z,17.73
2018-11-25T17:21:28.228Z,17.10
2018-11-25T17:23:56.695Z,17.00
2018-11-25T17:26:25.088Z,18.20
2018-11-25T17:28:53.407Z,20.30
2018-11-25T17:31:21.847Z,25.50
2018-11-25T17:33:50.211Z,19.57
2018-11-25T17:36:18.821Z,19.07
2018-11-25T17:38:47.350Z,17.83
2018-11-25T17:41:15.780Z,18.00
2018-11-25T17:43:44.148Z,17.47
2018-11-25T17:46:12.594Z,19.50
2018-11-25T17:48:43.234Z,23.13
2018-11-25T17:51:11.636Z,29.57
2018-11-25T17:53:39.984Z,22.27
2018-11-25T17:56:08.273Z,25.17
2018-11-25T17:58:36.788Z,25.63
2018-11-25T18:01:06.840Z,26.40
2018-11-25T18:03:36.529Z,22.97
2018-11-25T18:06:04.926Z,23.23
2018-11-25T18:08:33.288Z,21.27
2018-11-25T18:11:01.635Z,22.43
2018-11-25T18:13:32.170Z,22.70
2018-11-25T18:16:02.101Z,22.83
2018-11-25T18:18:33.963Z,21.53
2018-11-25T18:21:03.868Z,20.43
2018-11-25T18:23:32.335Z,21.47
2018-11-25T18:26:00.720Z,21.83
2018-11-25T18:28:41.842Z,21.80
2018-11-25T18:31:11.864Z,20.93
2018-11-25T18:33:40.383Z,20.63
2018-11-25T18:36:10.468Z,22.10
2018-11-25T18:38:38.879Z,22.33
2018-11-25T18:41:07.594Z,22.97
2018-11-25T18:43:36.011Z,23.00
2018-11-25T18:46:05.174Z,22.00
2018-11-25T18:48:34.683Z,22.53
2018-11-25T18:51:03.019Z,22.47
2018-11-25T18:53:31.444Z,20.63
2018-11-25T18:55:59.793Z,21.03
2018-11-25T18:58:28.276Z,20.70
2018-11-25T19:01:00.035Z,21.00
2018-11-25T19:03:28.398Z,21.13
2018-11-25T19:05:56.759Z,22.40
2018-11-25T19:08:25.165Z,20.50
2018-11-25T19:10:53.723Z,19.57
2018-11-25T19:13:22.096Z,21.00
2018-11-25T19:15:50.502Z,20.87
2018-11-25T19:18:19.059Z,21.43
2018-11-25T19:20:47.564Z,21.13
2018-11-25T19:23:16.169Z,26.77
2018-11-25T19:25:44.536Z,32.50
2018-11-25T19:28:12.908Z,24.47
2018-11-25T19:30:41.240Z,22.33
2018-11-25T19:33:10.685Z,20.70
2018-11-25T19:35:52.815Z,19.10
2018-11-25T19:38:23.109Z,19.40
2018-11-25T19:40:51.646Z,24.30
2018-11-25T19:43:20.143Z,25.83
2018-11-25T19:45:48.484Z,20.23
2018-11-25T19:48:17.078Z,19.70
2018-11-25T19:50:45.784Z,19.00
2018-11-25T19:53:16.254Z,21.87
2018-11-25T19:55:45.451Z,24.60
2018-11-25T19:58:13.861Z,22.27
2018-11-25T20:00:42.204Z,20.60
2018-11-25T20:03:11.511Z,24.63
2018-11-25T20:05:39.940Z,40.67
2018-11-25T20:08:08.682Z,20.67
2018-11-25T20:10:37.136Z,21.77
2018-11-25T20:13:06.827Z,21.20
2018-11-25T20:15:36.174Z,21.80
2018-11-25T20:18:06.023Z,21.83
2018-11-25T20:20:34.360Z,21.87
2018-11-25T20:23:02.805Z,24.03
2018-11-25T20:25:31.271Z,22.93
2018-11-25T20:27:59.745Z,24.77
2018-11-25T20:30:29.888Z,27.13
2018-11-25T20:33:03.584Z,26.63
2018-11-25T20:35:31.969Z,24.20
2018-11-25T20:38:05.922Z,24.60
2018-11-25T20:40:34.270Z,27.23
2018-11-25T20:43:03.254Z,27.00
2018-11-25T20:45:38.993Z,25.77
2018-11-25T20:48:05.916Z,22.13
2018-11-25T20:50:34.356Z,19.87
2018-11-25T20:53:08.391Z,23.27
2018-11-25T20:55:37.304Z,26.57
2018-11-25T20:58:07.439Z,32.33
2018-11-25T21:00:36.564Z,29.20
2018-11-25T21:03:07.267Z,23.77
2018-11-25T21:05:36.878Z,25.33
2018-11-25T21:08:05.733Z,24.47
2018-11-25T21:10:34.091Z,25.07
2018-11-25T21:13:02.635Z,22.27
2018-11-25T21:15:36.481Z,21.97
2018-11-25T21:18:06.593Z,22.10
2018-11-25T21:20:35.884Z,22.70
2018-11-25T21:23:07.454Z,20.80
2018-11-25T21:25:37.835Z,21.70
2018-11-25T21:28:08.195Z,22.83
2018-11-25T21:30:37.781Z,24.00
2018-11-25T21:33:06.664Z,21.43
2018-11-25T21:35:35.567Z,20.90
2018-11-25T21:38:04.605Z,21.17
2018-11-25T21:40:33.360Z,20.60
2018-11-25T21:43:02.257Z,20.23
2018-11-25T21:45:31.822Z,20.60
2018-11-25T21:48:00.508Z,18.53
2018-11-25T21:50:29.942Z,18.57
2018-11-25T21:52:58.320Z,17.10
2018-11-25T21:55:26.639Z,17.60
2018-11-25T21:57:55.283Z,17.83
2018-11-25T22:00:25.135Z,17.63
2018-11-25T22:02:53.420Z,17.57
2018-11-25T22:05:24.911Z,17.30
2018-11-25T22:07:51.968Z,18.50
2018-11-25T22:10:21.225Z,17.00
2018-11-25T22:12:50.557Z,17.03
2018-11-25T22:15:21.115Z,17.33
2018-11-25T22:17:50.152Z,17.27
2018-11-25T22:20:19.201Z,17.77
2018-11-25T22:22:48.407Z,18.30
2018-11-25T22:25:19.546Z,18.17
2018-11-25T22:27:48.340Z,18.40
2018-11-25T22:30:21.678Z,17.63
2018-11-25T22:32:50.976Z,19.13
2018-11-25T22:35:21.209Z,18.97
2018-11-25T22:37:49.571Z,18.63
2018-11-25T22:40:18.850Z,17.97
2018-11-25T22:42:48.046Z,17.63
2018-11-25T22:45:18.326Z,17.70
2018-11-25T22:47:46.821Z,18.00
2018-11-25T22:50:16.329Z,18.17
2018-11-25T22:52:44.877Z,17.80
2018-11-25T22:55:22.553Z,18.53
2018-11-25T22:57:50.924Z,19.57
2018-11-25T23:00:23.327Z,18.77
2018-11-25T23:02:51.708Z,20.27
2018-11-25T23:05:31.885Z,22.07
2018-11-25T23:08:00.223Z,19.90
2018-11-25T23:10:28.559Z,19.60
2018-11-25T23:12:56.852Z,20.10
2018-11-25T23:15:25.228Z,20.57
2018-11-25T23:17:53.618Z,20.50
2018-11-25T23:20:22.004Z,20.23
2018-11-25T23:22:50.381Z,28.30
2018-11-25T23:25:18.772Z,21.83
2018-11-25T23:27:47.120Z,21.53
2018-11-25T23:30:15.524Z,21.93
2018-11-25T23:32:44.108Z,20.73
2018-11-25T23:35:16.280Z,19.97
2018-11-25T23:37:44.670Z,19.73
2018-11-25T23:40:13.117Z,20.57
2018-11-25T23:42:41.460Z,22.33
2018-11-25T23:45:14.722Z,20.50
2018-11-25T23:47:43.165Z,18.10
2018-11-25T23:50:12.397Z,17.10
2018-11-25T23:52:41.064Z,17.53
2018-11-25T23:55:10.874Z,19.57
2018-11-25T23:57:39.518Z,18.83
